Time;durP1;ratioP1;P1;durP2;ratioP2;P2;SDS_P1;SDS_P2;PMS_P1;PMS_P2;Temp;Humidity;BMP_temperature;BMP_pressure;BME280_temperature;BME280_humidity;BME280_pressure;Samples;Min_cycle;Max_cycle;Signal;HPM_P1;HPM_P2
2023/01/14 00:01:21;;;;;;;6.17;4.97;;;7.90;1.00;;;;;;6286376;28;20241;-57
2023/01/14 00:04:24;;;;;;;4.43;4.03;;;7.90;1.00;;;;;;6285932;28;20638;-57
2023/01/14 00:07:28;;;;;;;4.43;4.23;;;7.90;1.00;;;;;;6280724;28;20234;-56
2023/01/14 00:10:31;;;;;;;3.97;3.70;;;7.80;1.00;;;;;;6286292;28;20237;-56
2023/01/14 00:13:35;;;;;;;5.70;4.97;;;7.80;1.00;;;;;;6286301;28;20604;-57
2023/01/14 00:16:38;;;;;;;4.93;3.57;;;7.90;1.00;;;;;;6269794;28;20769;-56
2023/01/14 00:19:41;;;;;;;5.83;4.17;;;7.80;1.00;;;;;;6260860;28;20745;-55
2023/01/14 00:22:45;;;;;;;3.87;3.57;;;7.60;1.00;;;;;;6261157;28;20264;-56
2023/01/14 00:25:48;;;;;;;8.43;4.03;;;7.80;1.00;;;;;;6260728;28;20731;-55
2023/01/14 00:28:51;;;;;;;4.83;3.97;;;7.90;1.00;;;;;;6264800;28;20399;-55
2023/01/14 00:31:56;;;;;;;4.03;3.67;;;7.90;1.00;;;;;;6288806;28;20258;-56
2023/01/14 00:34:59;;;;;;;4.10;3.83;;;7.90;1.00;;;;;;6288035;28;20270;-55
2023/01/14 00:38:03;;;;;;;3.63;3.53;;;7.90;1.00;;;;;;6284235;28;20614;-55
2023/01/14 00:41:09;;;;;;;5.23;3.90;;;7.80;1.00;;;;;;6285748;28;20307;-56
2023/01/14 00:44:13;;;;;;;4.00;3.70;;;7.80;1.00;;;;;;6285795;28;20710;-55
2023/01/14 00:47:16;;;;;;;4.43;3.87;;;7.80;1.00;;;;;;6284284;28;20244;-57
2023/01/14 00:50:19;;;;;;;4.23;3.73;;;7.90;1.00;;;;;;6285110;28;20240;-56
2023/01/14 00:53:24;;;;;;;4.03;3.63;;;8.10;1.00;;;;;;6269885;28;20253;-57
2023/01/14 00:56:27;;;;;;;4.20;3.60;;;7.90;1.00;;;;;;6259876;28;20233;-56
2023/01/14 00:59:30;;;;;;;4.33;4.00;;;7.90;1.00;;;;;;6259717;28;20242;-56
2023/01/14 01:02:33;;;;;;;4.03;3.73;;;7.90;1.00;;;;;;6279391;28;20233;-56
2023/01/14 01:05:37;;;;;;;4.37;3.97;;;7.90;1.00;;;;;;6284829;28;20257;-57
2023/01/14 01:08:42;;;;;;;4.30;4.00;;;8.00;1.00;;;;;;6283032;28;20237;-56
2023/01/14 01:11:45;;;;;;;4.30;3.83;;;8.00;1.00;;;;;;6275661;28;20503;-56
2023/01/14 01:14:48;;;;;;;3.90;3.70;;;8.00;1.00;;;;;;6256831;28;20237;-56
2023/01/14 01:17:51;;;;;;;4.00;3.70;;;8.00;1.00;;;;;;6259342;28;20273;-56
2023/01/14 01:21:01;;;;;;;4.87;3.80;;;8.00;1.00;;;;;;6260546;28;20254;-56
2023/01/14 01:24:06;;;;;;;3.87;3.77;;;8.20;1.00;;;;;;6259518;28;20251;-56
2023/01/14 01:27:09;;;;;;;4.30;4.00;;;8.20;1.00;;;;;;6259412;28;20245;-55
2023/01/14 01:30:13;;;;;;;4.77;3.73;;;8.00;1.00;;;;;;6283152;28;20237;-57
2023/01/14 01:33:16;;;;;;;3.90;3.70;;;8.10;1.00;;;;;;6290217;28;20237;-57
2023/01/14 01:36:22;;;;;;;4.43;3.80;;;8.10;1.00;;;;;;6259931;28;20252;-57
2023/01/14 01:39:27;;;;;;;4.30;3.90;;;8.40;1.00;;;;;;6271419;28;20251;-56
2023/01/14 01:42:33;;;;;;;4.50;3.90;;;8.10;1.00;;;;;;6283902;28;20279;-56
2023/01/14 01:45:43;;;;;;;5.50;3.90;;;8.20;1.00;;;;;;6262479;28;20248;-56
2023/01/14 01:48:46;;;;;;;4.50;4.30;;;8.10;1.00;;;;;;6258966;28;20260;-56
2023/01/14 01:51:54;;;;;;;5.47;3.83;;;8.30;1.00;;;;;;6259412;28;20513;-56
2023/01/14 01:55:02;;;;;;;4.23;3.87;;;8.10;1.00;;;;;;6277493;28;20248;-56
2023/01/14 01:58:06;;;;;;;6.00;3.93;;;8.10;1.00;;;;;;6259163;28;20356;-56
2023/01/14 02:01:09;;;;;;;4.67;4.17;;;8.10;1.00;;;;;;6258830;28;20236;-56
2023/01/14 02:04:13;;;;;;;4.20;3.93;;;8.00;1.00;;;;;;6286291;28;20532;-55
2023/01/14 02:07:20;;;;;;;5.00;4.10;;;8.00;1.00;;;;;;6283281;28;20709;-55
2023/01/14 02:10:41;;;;;;;8.07;4.17;;;8.00;1.00;;;;;;6276028;28;20283;-56
2023/01/14 02:13:56;;;;;;;4.57;4.27;;;7.80;1.00;;;;;;6258717;28;20238;-57
2023/01/14 02:17:13;;;;;;;4.07;3.77;;;8.00;1.00;;;;;;6257935;28;20229;-56
2023/01/14 02:20:22;;;;;;;3.93;3.60;;;8.10;1.00;;;;;;6258914;28;20242;-56
2023/01/14 02:23:52;;;;;;;3.50;3.20;;;8.10;1.00;;;;;;6258558;28;20245;-55
2023/01/14 02:27:23;;;;;;;4.20;3.73;;;8.10;1.00;;;;;;6257617;28;20653;-59
2023/01/14 02:30:40;;;;;;;4.03;3.70;;;8.10;1.00;;;;;;6268407;28;20606;-56
2023/01/14 02:33:46;;;;;;;6.27;4.23;;;8.10;1.00;;;;;;6289800;28;20226;-56
2023/01/14 02:36:54;;;;;;;4.20;4.00;;;8.00;1.00;;;;;;6268165;28;20779;-58
2023/01/14 02:40:02;;;;;;;4.73;3.80;;;8.20;1.00;;;;;;6283368;28;20245;-56
2023/01/14 02:46:36;;;;;;;4.83;4.10;;;7.90;1.00;;;;;;6258166;28;20439;-56
2023/01/14 02:49:44;;;;;;;5.93;4.50;;;7.90;1.00;;;;;;6258441;28;20248;-55
2023/01/14 02:52:47;;;;;;;4.10;3.90;;;7.70;1.00;;;;;;6258381;28;20233;-56
2023/01/14 02:55:51;;;;;;;4.03;3.80;;;8.00;1.00;;;;;;6269155;28;20245;-55
2023/01/14 02:59:21;;;;;;;4.40;4.10;;;7.60;1.00;;;;;;6278020;28;20237;-57
2023/01/14 03:02:57;;;;;;;4.27;4.00;;;7.50;1.00;;;;;;6276495;28;20253;-57
2023/01/14 03:06:25;;;;;;;4.67;4.33;;;7.50;1.00;;;;;;6279429;28;20233;-56
2023/01/14 03:09:37;;;;;;;4.23;4.00;;;7.60;1.00;;;;;;6273019;28;20247;-56
2023/01/14 03:12:45;;;;;;;3.77;3.60;;;7.50;1.00;;;;;;6282704;28;20237;-56
2023/01/14 03:15:54;;;;;;;4.87;3.67;;;7.50;1.00;;;;;;6284745;28;20241;-58
2023/01/14 03:19:05;;;;;;;4.43;4.03;;;7.50;1.00;;;;;;6263849;28;20246;-56
2023/01/14 03:22:08;;;;;;;4.47;4.07;;;7.50;1.00;;;;;;6258610;28;20226;-55
2023/01/14 03:25:16;;;;;;;4.13;3.60;;;7.60;1.00;;;;;;6259790;28;20241;-56
2023/01/14 03:28:23;;;;;;;3.50;3.30;;;7.60;1.00;;;;;;6266450;28;20237;-56
2023/01/14 03:31:29;;;;;;;6.27;3.87;;;7.60;1.00;;;;;;6268017;28;20230;-56
2023/01/14 03:34:39;;;;;;;6.13;3.83;;;7.80;1.00;;;;;;6266184;28;20238;-56
2023/01/14 03:37:46;;;;;;;4.07;3.80;;;7.60;1.00;;;;;;6282473;28;20245;-56
2023/01/14 03:40:52;;;;;;;4.90;3.90;;;7.60;1.00;;;;;;6284839;28;20245;-55
2023/01/14 03:43:56;;;;;;;3.73;3.40;;;7.40;1.00;;;;;;6276695;28;20230;-56
2023/01/14 03:46:59;;;;;;;5.50;3.80;;;7.60;1.00;;;;;;6254470;28;20238;-56
2023/01/14 03:50:08;;;;;;;3.80;3.60;;;7.60;1.00;;;;;;6260873;28;20364;-56
2023/01/14 03:53:23;;;;;;;6.23;4.33;;;7.60;1.00;;;;;;6261933;28;20265;-56
2023/01/14 03:56:32;;;;;;;5.07;4.03;;;7.60;1.00;;;;;;6261471;28;20249;-56
2023/01/14 03:59:44;;;;;;;4.10;3.80;;;7.70;1.00;;;;;;6279815;28;20238;-56
2023/01/14 04:02:48;;;;;;;4.10;3.90;;;8.00;1.00;;;;;;6292914;28;20690;-56
2023/01/14 04:05:54;;;;;;;3.80;3.57;;;8.00;1.00;;;;;;6285418;28;20233;-57
2023/01/14 04:08:57;;;;;;;4.97;4.10;;;7.70;1.00;;;;;;6282063;28;20633;-56
2023/01/14 04:12:00;;;;;;;4.00;3.70;;;7.90;1.00;;;;;;6286455;28;20240;-56
2023/01/14 04:18:21;;;;;;;4.37;3.67;;;7.70;1.00;;;;;;6265034;28;20234;-55
2023/01/14 04:21:26;;;;;;;4.30;4.10;;;7.70;1.00;;;;;;6260697;28;20237;-55
2023/01/14 04:24:29;;;;;;;3.93;3.50;;;7.70;1.00;;;;;;6261565;28;20609;-55
2023/01/14 04:27:32;;;;;;;4.33;3.93;;;7.70;1.00;;;;;;6261832;28;20738;-56
2023/01/14 04:30:35;;;;;;;4.20;3.83;;;7.70;1.00;;;;;;6285389;28;20395;-57
2023/01/14 04:33:38;;;;;;;5.50;4.03;;;7.70;1.00;;;;;;6262481;28;20268;-56
2023/01/14 04:36:42;;;;;;;3.97;3.67;;;7.90;1.00;;;;;;6279781;28;20244;-57
2023/01/14 04:39:45;;;;;;;4.80;4.07;;;7.70;1.00;;;;;;6280625;28;20232;-56
2023/01/14 04:42:49;;;;;;;5.27;3.90;;;7.70;1.00;;;;;;6287067;28;20244;-57
2023/01/14 04:45:54;;;;;;;4.73;4.33;;;7.70;1.00;;;;;;6295883;28;20228;-57
2023/01/14 04:48:57;;;;;;;5.53;4.10;;;7.80;1.00;;;;;;6275584;28;20607;-55
2023/01/14 04:52:01;;;;;;;4.17;3.87;;;7.70;1.00;;;;;;6291562;28;20237;-58
2023/01/14 04:55:05;;;;;;;7.10;4.03;;;7.80;1.00;;;;;;6283768;28;20785;-56
2023/01/14 04:58:10;;;;;;;5.33;3.70;;;7.80;1.00;;;;;;6281837;28;20823;-56
2023/01/14 05:01:13;;;;;;;8.37;4.73;;;7.80;1.00;;;;;;6284693;28;20434;-56
2023/01/14 05:04:17;;;;;;;4.33;3.90;;;7.80;1.00;;;;;;6293157;28;20280;-56
2023/01/14 05:07:21;;;;;;;4.07;3.63;;;7.80;1.00;;;;;;6271659;28;20529;-57
2023/01/14 05:10:24;;;;;;;4.03;3.80;;;7.80;1.00;;;;;;6287138;28;20237;-57
2023/01/14 05:13:27;;;;;;;4.47;4.17;;;7.90;1.00;;;;;;6290949;28;20614;-55
2023/01/14 05:16:30;;;;;;;3.97;3.60;;;7.90;1.00;;;;;;6273149;28;20328;-56
2023/01/14 05:19:33;;;;;;;4.00;3.73;;;7.80;1.00;;;;;;6292157;28;20890;-56
2023/01/14 05:22:38;;;;;;;3.70;3.43;;;7.80;1.00;;;;;;6284710;28;20247;-56
2023/01/14 05:25:41;;;;;;;4.60;4.27;;;8.00;1.00;;;;;;6280013;28;20233;-56
2023/01/14 05:28:44;;;;;;;4.23;3.80;;;7.80;1.00;;;;;;6281084;28;20256;-55
2023/01/14 05:31:47;;;;;;;4.77;3.63;;;7.90;1.00;;;;;;6284185;28;20320;-56
2023/01/14 05:34:50;;;;;;;3.90;3.60;;;7.90;1.00;;;;;;6276437;28;20229;-56
2023/01/14 05:37:55;;;;;;;3.97;3.67;;;7.90;1.00;;;;;;6284724;28;20729;-56
2023/01/14 05:40:58;;;;;;;3.90;3.53;;;7.90;1.00;;;;;;6283582;28;20393;-57
2023/01/14 05:47:21;;;;;;;5.77;4.30;;;7.90;1.00;;;;;;6288590;28;20420;-56
2023/01/14 05:50:24;;;;;;;4.23;3.83;;;8.00;1.00;;;;;;6283251;28;20237;-56
2023/01/14 05:53:29;;;;;;;4.47;3.70;;;8.00;1.00;;;;;;6279446;28;20249;-57
2023/01/14 05:56:32;;;;;;;5.50;4.07;;;8.00;1.00;;;;;;6286110;28;20317;-57
2023/01/14 05:59:35;;;;;;;4.60;4.30;;;7.90;1.00;;;;;;6278410;28;20341;-57
2023/01/14 06:09:21;;;;;;;4.17;3.83;;;8.10;1.00;;;;;;6291620;28;20228;-56
2023/01/14 06:12:36;;;;;;;4.87;3.73;;;7.90;1.00;;;;;;6282121;28;20604;-57
2023/01/14 06:15:39;;;;;;;5.50;4.20;;;8.00;1.00;;;;;;6282194;28;20267;-56
2023/01/14 06:18:43;;;;;;;5.97;3.70;;;7.90;1.00;;;;;;6278934;28;20244;-57
2023/01/14 06:21:46;;;;;;;3.97;3.67;;;7.90;1.00;;;;;;6282483;28;20237;-56
2023/01/14 06:24:50;;;;;;;3.93;3.63;;;7.90;1.00;;;;;;6289650;28;20230;-56
2023/01/14 06:27:53;;;;;;;4.50;4.10;;;7.90;1.00;;;;;;6273577;28;20236;-57
2023/01/14 06:30:56;;;;;;;4.60;3.80;;;8.00;1.00;;;;;;6282089;28;20297;-55
2023/01/14 06:34:01;;;;;;;4.17;3.60;;;8.00;1.00;;;;;;6283817;28;20323;-57
2023/01/14 06:37:04;;;;;;;4.57;4.10;;;8.00;1.00;;;;;;6282922;28;20655;-56
2023/01/14 06:40:11;;;;;;;6.80;3.70;;;7.90;1.00;;;;;;6274349;28;20733;-56
2023/01/14 06:43:14;;;;;;;4.73;3.67;;;7.90;1.00;;;;;;6286950;28;20429;-58
2023/01/14 06:46:17;;;;;;;4.47;4.07;;;7.90;1.00;;;;;;6274677;28;20236;-56
2023/01/14 06:49:20;;;;;;;4.33;4.03;;;7.90;1.00;;;;;;6281159;28;20244;-57
2023/01/14 06:52:23;;;;;;;6.27;3.70;;;7.70;1.00;;;;;;6281095;28;20379;-56
2023/01/14 06:55:28;;;;;;;5.30;4.13;;;7.80;1.00;;;;;;6281458;28;20240;-55
2023/01/14 06:58:31;;;;;;;6.20;4.13;;;7.70;1.00;;;;;;6281593;28;20240;-57
2023/01/14 07:01:34;;;;;;;6.00;4.03;;;7.70;1.00;;;;;;6285800;28;20382;-57
2023/01/14 07:04:38;;;;;;;4.00;3.70;;;7.60;1.00;;;;;;6287463;28;20229;-56
2023/01/14 07:07:41;;;;;;;4.47;3.80;;;7.60;1.00;;;;;;6275183;28;20753;-56
2023/01/14 07:10:49;;;;;;;4.23;3.93;;;7.60;1.00;;;;;;6287415;28;20245;-56
2023/01/14 07:13:52;;;;;;;5.13;3.90;;;7.60;1.00;;;;;;6272652;28;20236;-57
2023/01/14 07:16:55;;;;;;;4.23;3.90;;;7.50;1.00;;;;;;6274954;28;20256;-56
2023/01/14 07:19:58;;;;;;;4.77;4.13;;;7.50;1.00;;;;;;6285787;28;20229;-56
2023/01/14 07:23:02;;;;;;;4.50;4.20;;;7.40;1.00;;;;;;6286615;28;20752;-56
2023/01/14 07:26:06;;;;;;;5.17;4.50;;;7.50;1.00;;;;;;6285122;28;20291;-57
2023/01/14 07:29:10;;;;;;;4.67;4.20;;;7.60;1.00;;;;;;6269188;28;20304;-56
2023/01/14 07:32:13;;;;;;;4.27;4.00;;;7.40;1.00;;;;;;6282593;28;20264;-56
2023/01/14 07:35:16;;;;;;;7.90;4.00;;;7.50;1.00;;;;;;6292887;28;20229;-56
2023/01/14 07:38:19;;;;;;;8.63;4.40;;;7.60;1.00;;;;;;6286412;28;20757;-56
2023/01/14 07:41:24;;;;;;;6.87;4.37;;;7.30;1.00;;;;;;6285909;28;20241;-56
2023/01/14 07:44:27;;;;;;;4.90;4.53;;;7.30;1.00;;;;;;6287059;28;20239;-56
2023/01/14 07:47:30;;;;;;;4.47;3.97;;;7.40;1.00;;;;;;6285326;28;20233;-57
2023/01/14 07:50:33;;;;;;;3.77;3.57;;;7.40;1.00;;;;;;6282051;28;20256;-57
2023/01/14 07:53:36;;;;;;;5.60;3.93;;;7.30;1.00;;;;;;6276490;28;20730;-57
2023/01/14 07:56:41;;;;;;;7.10;4.07;;;7.60;1.00;;;;;;6286082;28;20554;-57
2023/01/14 07:59:44;;;;;;;4.80;4.50;;;7.20;1.00;;;;;;6285742;28;20737;-56
2023/01/14 08:02:47;;;;;;;6.53;4.30;;;7.30;1.00;;;;;;6297984;28;20225;-56
2023/01/14 08:05:50;;;;;;;6.87;4.87;;;7.40;1.00;;;;;;6285088;28;20241;-57
2023/01/14 08:08:53;;;;;;;6.00;4.37;;;7.40;1.00;;;;;;6283289;28;20788;-58
2023/01/14 08:11:58;;;;;;;5.13;4.57;;;7.40;1.00;;;;;;6284944;28;20278;-56
2023/01/14 08:15:02;;;;;;;4.87;4.33;;;7.50;1.00;;;;;;6282660;28;21223;-57
2023/01/14 08:18:05;;;;;;;6.47;4.33;;;7.50;1.00;;;;;;6288460;28;20245;-57
2023/01/14 08:21:11;;;;;;;5.30;4.83;;;7.60;1.00;;;;;;6279907;28;20372;-56
2023/01/14 08:24:14;;;;;;;5.30;4.20;;;7.60;1.00;;;;;;6284015;28;20241;-57
2023/01/14 08:27:18;;;;;;;4.77;4.37;;;7.80;1.00;;;;;;6282774;28;20243;-57
2023/01/14 08:30:21;;;;;;;4.60;4.20;;;7.50;1.00;;;;;;6280005;28;20326;-56
2023/01/14 08:33:26;;;;;;;4.60;4.20;;;7.70;1.00;;;;;;6278424;28;20233;-56
2023/01/14 08:36:29;;;;;;;4.57;4.27;;;7.60;1.00;;;;;;6281078;28;20750;-56
2023/01/14 08:39:32;;;;;;;4.87;4.43;;;7.50;1.00;;;;;;6286255;28;20320;-57
2023/01/14 08:42:36;;;;;;;4.00;3.60;;;7.60;1.00;;;;;;6284639;28;20226;-57
2023/01/14 08:45:39;;;;;;;4.33;4.03;;;7.70;1.00;;;;;;6279082;28;20287;-57
2023/01/14 08:48:43;;;;;;;6.17;3.70;;;7.70;1.00;;;;;;6288486;28;20533;-57
2023/01/14 08:51:46;;;;;;;4.53;3.90;;;7.80;1.00;;;;;;6292705;28;20283;-56
2023/01/14 08:54:49;;;;;;;4.40;4.00;;;7.80;1.00;;;;;;6289890;28;20225;-56
2023/01/14 08:57:53;;;;;;;8.37;6.27;;;7.80;1.00;;;;;;6292039;28;20225;-56
2023/01/14 09:00:56;;;;;;;3.97;3.57;;;7.80;1.00;;;;;;6279426;28;20386;-57
2023/01/14 09:04:00;;;;;;;4.40;3.97;;;7.90;1.00;;;;;;6281855;28;20287;-56
2023/01/14 09:17:10;;;;;;;5.17;4.80;;;8.10;1.00;;;;;;6280695;28;20225;-57
2023/01/14 09:20:16;;;;;;;5.00;4.47;;;8.40;1.00;;;;;;6287022;28;20398;-57
2023/01/14 09:23:19;;;;;;;4.37;4.07;;;8.40;1.00;;;;;;6283100;28;20237;-56
2023/01/14 09:26:22;;;;;;;4.90;4.30;;;8.30;1.00;;;;;;6284010;28;20233;-56
2023/01/14 09:29:27;;;;;;;4.20;3.90;;;8.40;1.00;;;;;;6281264;28;20237;-57
2023/01/14 09:32:39;;;;;;;4.77;4.23;;;8.50;1.00;;;;;;6291094;28;20378;-56
2023/01/14 09:35:42;;;;;;;4.73;4.33;;;8.60;1.00;;;;;;6270360;28;20245;-55
2023/01/14 09:38:48;;;;;;;6.23;3.60;;;8.70;1.00;;;;;;6285150;28;20233;-56
2023/01/14 09:41:54;;;;;;;4.17;3.87;;;8.60;1.00;;;;;;6290180;28;20262;-56
2023/01/14 09:45:04;;;;;;;4.80;4.40;;;8.60;1.00;;;;;;6286276;28;20278;-57
2023/01/14 09:48:13;;;;;;;6.87;4.07;;;8.70;1.00;;;;;;6283448;28;20475;-56
2023/01/14 09:51:34;;;;;;;5.00;3.83;;;8.80;1.00;;;;;;6283591;28;20301;-56
2023/01/14 09:54:44;;;;;;;4.40;4.00;;;8.90;1.00;;;;;;6276394;28;20678;-56
2023/01/14 09:57:53;;;;;;;4.20;3.90;;;8.90;1.00;;;;;;6271899;28;20240;-57
2023/01/14 10:01:09;;;;;;;5.43;3.93;;;9.00;1.00;;;;;;6287260;28;20236;-57
2023/01/14 10:04:29;;;;;;;4.83;4.40;;;9.00;1.00;;;;;;6286547;28;20230;-56
2023/01/14 10:07:34;;;;;;;6.60;4.27;;;9.10;1.00;;;;;;6277562;28;20496;-57
2023/01/14 10:10:40;;;;;;;8.77;4.30;;;9.20;1.00;;;;;;6284528;28;20812;-57
2023/01/14 10:13:49;;;;;;;4.93;4.43;;;9.10;1.00;;;;;;6283269;28;20237;-56
2023/01/14 10:16:57;;;;;;;4.10;3.60;;;9.10;1.00;;;;;;6279088;28;20236;-56
2023/01/14 10:20:10;;;;;;;5.43;3.90;;;9.00;1.00;;;;;;6267031;28;20297;-56
2023/01/14 10:23:17;;;;;;;7.60;4.20;;;9.10;1.00;;;;;;6279414;28;20244;-57
2023/01/14 10:26:22;;;;;;;5.77;4.30;;;9.10;1.00;;;;;;6287655;28;20609;-57
2023/01/14 10:29:26;;;;;;;6.20;4.20;;;9.10;1.00;;;;;;6279906;28;20229;-56
2023/01/14 10:32:32;;;;;;;6.00;3.93;;;9.10;1.00;;;;;;6294393;28;20257;-57
2023/01/14 10:35:38;;;;;;;6.70;4.53;;;9.10;1.00;;;;;;6281664;28;20316;-56
2023/01/14 10:38:42;;;;;;;6.37;4.37;;;9.20;1.00;;;;;;6272103;28;20233;-57
2023/01/14 10:41:51;;;;;;;5.43;4.23;;;9.20;1.00;;;;;;6285867;28;20229;-56
2023/01/14 10:44:55;;;;;;;11.77;5.00;;;9.20;1.00;;;;;;6294075;28;20305;-56
2023/01/14 10:48:04;;;;;;;12.23;4.70;;;9.20;1.00;;;;;;6280218;28;20389;-56
2023/01/14 10:51:30;;;;;;;9.13;4.47;;;9.20;1.00;;;;;;6282075;28;20730;-57
2023/01/14 10:54:33;;;;;;;18.63;9.03;;;9.20;1.00;;;;;;6274246;28;20232;-57
2023/01/14 10:57:40;;;;;;;7.17;4.40;;;9.30;1.00;;;;;;6281156;28;20237;-58
2023/01/14 11:00:47;;;;;;;7.67;4.33;;;9.20;1.00;;;;;;6281129;28;20299;-57
2023/01/14 11:03:52;;;;;;;4.73;4.30;;;9.20;1.00;;;;;;6290316;28;20230;-57
2023/01/14 11:06:55;;;;;;;8.10;4.73;;;9.20;1.00;;;;;;6286640;28;20244;-57
2023/01/14 11:10:02;;;;;;;8.53;4.30;;;9.10;1.00;;;;;;6282241;28;20489;-57
2023/01/14 11:13:16;;;;;;;8.77;4.77;;;9.10;1.00;;;;;;6286049;28;20252;-57
2023/01/14 11:16:34;;;;;;;9.37;4.60;;;9.10;1.00;;;;;;6284461;28;20232;-57
2023/01/14 11:19:39;;;;;;;6.60;4.27;;;9.20;1.00;;;;;;6277599;28;20764;-56
2023/01/14 11:22:42;;;;;;;7.97;4.97;;;9.30;1.00;;;;;;6282363;28;20406;-58
2023/01/14 11:25:50;;;;;;;10.50;4.73;;;9.30;1.00;;;;;;6275516;28;20240;-56
2023/01/14 11:29:01;;;;;;;9.63;4.83;;;9.20;1.00;;;;;;6274887;28;20649;-57
2023/01/14 11:32:10;;;;;;;8.77;4.70;;;9.10;1.00;;;;;;6287480;28;20958;-55
2023/01/14 11:35:23;;;;;;;9.90;4.37;;;9.10;1.00;;;;;;6290840;28;20674;-57
2023/01/14 11:38:26;;;;;;;6.97;5.10;;;9.10;1.00;;;;;;6277820;28;20375;-56
2023/01/14 11:41:36;;;;;;;11.47;5.67;;;9.10;1.00;;;;;;6282190;28;20236;-56
2023/01/14 11:44:39;;;;;;;8.13;4.43;;;9.00;1.00;;;;;;6285161;28;20398;-57
2023/01/14 11:47:48;;;;;;;10.93;4.53;;;9.00;1.00;;;;;;6281364;28;20287;-56
2023/01/14 11:50:58;;;;;;;8.50;4.90;;;9.10;1.00;;;;;;6282672;28;20803;-57
2023/01/14 11:54:04;;;;;;;8.70;4.83;;;9.00;1.00;;;;;;6281740;28;20694;-57
2023/01/14 11:57:15;;;;;;;8.73;5.40;;;9.00;1.00;;;;;;6281966;28;20237;-56
2023/01/14 12:00:20;;;;;;;12.30;4.60;;;9.00;1.00;;;;;;6271617;28;20538;-56
2023/01/14 12:03:33;;;;;;;8.07;4.70;;;8.90;1.00;;;;;;6291292;28;20859;-56
2023/01/14 12:06:47;;;;;;;7.53;4.57;;;8.90;1.00;;;;;;6284733;28;20359;-57
2023/01/14 12:09:54;;;;;;;9.37;5.30;;;8.80;1.00;;;;;;6286372;28;20233;-56
2023/01/14 12:16:50;;;;;;;7.13;4.67;;;8.90;1.00;;;;;;6279001;28;20229;-56
2023/01/14 12:19:58;;;;;;;8.77;4.90;;;8.90;1.00;;;;;;6277576;28;20536;-56
2023/01/14 12:23:05;;;;;;;5.43;4.93;;;8.90;1.00;;;;;;6287231;28;20237;-56
2023/01/14 12:26:18;;;;;;;6.57;4.27;;;8.90;1.00;;;;;;6284604;28;20352;-56
2023/01/14 12:29:25;;;;;;;10.00;5.23;;;8.90;1.00;;;;;;6283260;28;20241;-56
2023/01/14 12:32:28;;;;;;;11.07;4.80;;;8.90;1.00;;;;;;6287175;28;20243;-56
2023/01/14 12:35:36;;;;;;;6.60;4.20;;;8.80;1.00;;;;;;6286032;28;20722;-56
2023/01/14 12:45:52;;;;;;;4.97;4.43;;;8.70;1.00;;;;;;6276022;28;20579;-56
2023/01/14 12:48:58;;;;;;;4.93;4.53;;;8.70;1.00;;;;;;6287206;28;20244;-56
2023/01/14 12:52:03;;;;;;;5.37;4.57;;;8.60;1.00;;;;;;6286536;28;20403;-56
2023/01/14 12:55:18;;;;;;;5.70;4.50;;;8.60;1.00;;;;;;6288410;28;20236;-56
2023/01/14 12:58:24;;;;;;;11.83;5.07;;;8.60;1.00;;;;;;6282382;28;20252;-56
2023/01/14 13:01:30;;;;;;;8.47;4.77;;;8.60;1.00;;;;;;6284383;28;20268;-56
2023/01/14 13:04:38;;;;;;;8.17;4.43;;;8.60;1.00;;;;;;6286678;28;20241;-57
2023/01/14 13:07:49;;;;;;;5.47;4.47;;;8.50;1.00;;;;;;6281421;28;20232;-56
2023/01/14 13:11:04;;;;;;;7.07;4.90;;;8.50;1.00;;;;;;6284074;28;20606;-56
2023/01/14 13:14:21;;;;;;;9.07;4.80;;;8.60;1.00;;;;;;6283909;28;20229;-57
2023/01/14 13:17:32;;;;;;;10.53;4.80;;;8.50;1.00;;;;;;6282435;28;20699;-57
2023/01/14 13:20:53;;;;;;;10.60;5.33;;;8.50;1.00;;;;;;6279430;28;20325;-57
2023/01/14 13:24:03;;;;;;;11.17;5.00;;;8.50;1.00;;;;;;6289906;28;20221;-57
2023/01/14 13:27:36;;;;;;;7.80;5.03;;;8.50;1.00;;;;;;6282017;28;21218;-58
2023/01/14 13:30:46;;;;;;;7.77;4.50;;;8.50;1.00;;;;;;6267342;28;20225;-57
2023/01/14 13:34:45;;;;;;;16.03;5.60;;;8.60;1.00;;;;;;6288439;28;20364;-58
2023/01/14 13:37:50;;;;;;;8.17;4.90;;;8.60;1.00;;;;;;6280636;28;20226;-56
2023/01/14 13:41:06;;;;;;;5.53;4.97;;;8.50;1.00;;;;;;6283973;28;20756;-57
2023/01/14 13:44:24;;;;;;;9.73;4.90;;;8.60;1.00;;;;;;6284018;28;20252;-57
2023/01/14 13:47:34;;;;;;;7.40;4.63;;;8.50;1.00;;;;;;6282851;28;20804;-56
2023/01/14 13:50:40;;;;;;;8.17;5.60;;;8.50;1.00;;;;;;6280120;28;20224;-56
2023/01/14 13:53:54;;;;;;;6.87;4.67;;;8.50;1.00;;;;;;6281079;28;20362;-56
2023/01/14 13:57:13;;;;;;;8.57;5.07;;;8.50;1.00;;;;;;6287577;28;20236;-57
2023/01/14 14:00:40;;;;;;;11.60;4.80;;;8.50;1.00;;;;;;6283588;28;20233;-57
2023/01/14 14:03:44;;;;;;;12.10;5.40;;;8.50;1.00;;;;;;6277578;28;20287;-58
2023/01/14 14:06:47;;;;;;;10.53;5.20;;;8.50;1.00;;;;;;6282899;28;20717;-56
2023/01/14 14:09:51;;;;;;;8.93;4.90;;;8.50;1.00;;;;;;6283532;28;20225;-56
2023/01/14 14:16:22;;;;;;;13.80;5.43;;;8.50;1.00;;;;;;6287605;28;20909;-56
2023/01/14 14:19:32;;;;;;;11.53;5.87;;;8.50;1.00;;;;;;6280925;28;20705;-56
2023/01/14 14:22:48;;;;;;;9.40;5.10;;;8.50;1.00;;;;;;6279677;28;20249;-56
2023/01/14 14:25:52;;;;;;;12.10;5.60;;;8.40;1.00;;;;;;6289479;28;20719;-57
2023/01/14 14:28:58;;;;;;;12.97;5.03;;;8.30;1.00;;;;;;6280004;28;20264;-56
2023/01/14 14:32:10;;;;;;;10.77;5.10;;;8.30;1.00;;;;;;6283196;28;20247;-56
2023/01/14 14:35:17;;;;;;;11.43;5.77;;;8.20;1.00;;;;;;6293677;28;20229;-56
2023/01/14 14:38:20;;;;;;;10.27;5.90;;;8.20;1.00;;;;;;6282964;28;20627;-56
2023/01/14 14:41:25;;;;;;;12.87;7.03;;;8.00;1.00;;;;;;6287275;28;20247;-56
2023/01/14 14:44:30;;;;;;;10.60;5.73;;;7.90;1.00;;;;;;6282534;28;20244;-56
2023/01/14 14:47:33;;;;;;;10.87;6.13;;;7.90;1.00;;;;;;6283867;28;20730;-56
2023/01/14 14:50:38;;;;;;;10.53;5.80;;;7.70;1.00;;;;;;6287710;28;20248;-56
2023/01/14 14:53:44;;;;;;;9.10;5.07;;;7.70;1.00;;;;;;6285557;28;20236;-55
2023/01/14 14:56:48;;;;;;;12.03;6.03;;;7.80;1.00;;;;;;6288645;28;20301;-56
2023/01/14 14:59:52;;;;;;;10.77;6.00;;;7.60;1.00;;;;;;6285101;28;20229;-55
2023/01/14 15:02:58;;;;;;;12.17;7.00;;;7.60;1.00;;;;;;6290486;28;20256;-56
2023/01/14 15:06:10;;;;;;;13.27;7.03;;;7.50;1.00;;;;;;6286515;28;20236;-56
2023/01/14 15:09:18;;;;;;;13.17;6.63;;;7.60;1.00;;;;;;6280585;28;20355;-56
2023/01/14 15:12:22;;;;;;;14.10;7.30;;;7.50;1.00;;;;;;6288567;28;20238;-55
2023/01/14 15:15:28;;;;;;;16.30;7.47;;;7.50;1.00;;;;;;6276335;28;20241;-56
2023/01/14 15:18:35;;;;;;;11.63;7.40;;;7.70;1.00;;;;;;6278966;28;20606;-56
2023/01/14 15:21:40;;;;;;;12.77;6.73;;;7.30;1.00;;;;;;6280520;28;20229;-56
2023/01/14 15:24:44;;;;;;;11.93;6.70;;;7.40;1.00;;;;;;6277931;28;20756;-56
2023/01/14 15:27:50;;;;;;;9.60;6.13;;;7.30;1.00;;;;;;6284466;28;20236;-56
2023/01/14 15:30:57;;;;;;;15.40;8.57;;;7.30;1.00;;;;;;6281546;28;20252;-56
2023/01/14 15:34:02;;;;;;;8.87;5.80;;;7.60;1.00;;;;;;6286765;28;20245;-57
2023/01/14 15:37:17;;;;;;;16.50;6.47;;;7.40;1.00;;;;;;6285342;28;20710;-56
2023/01/14 15:40:23;;;;;;;17.17;7.20;;;7.30;1.00;;;;;;6276652;28;20745;-56
2023/01/14 15:43:28;;;;;;;12.57;6.57;;;7.30;1.00;;;;;;6285598;28;20625;-56
2023/01/14 15:46:32;;;;;;;10.60;5.97;;;7.50;1.00;;;;;;6279338;28;20237;-57
2023/01/14 15:49:36;;;;;;;15.67;6.90;;;7.20;1.00;;;;;;6281259;28;20500;-56
2023/01/14 15:52:42;;;;;;;16.37;7.20;;;7.30;1.00;;;;;;6294189;28;20233;-55
2023/01/14 15:56:07;;;;;;;17.30;7.00;;;7.40;1.00;;;;;;6295706;28;20247;-56
2023/01/14 15:59:12;;;;;;;10.30;6.90;;;7.30;1.00;;;;;;6290218;28;20327;-56
2023/01/14 16:02:25;;;;;;;14.30;6.83;;;7.40;1.00;;;;;;6276438;28;20240;-55
2023/01/14 16:05:33;;;;;;;12.07;6.03;;;7.30;1.00;;;;;;6265730;28;20245;-56
2023/01/14 16:08:37;;;;;;;8.77;5.27;;;7.40;1.00;;;;;;6287793;28;20241;-54
2023/01/14 16:11:44;;;;;;;7.67;5.87;;;7.40;1.00;;;;;;6287982;28;20224;-56
2023/01/14 16:14:47;;;;;;;13.03;5.40;;;7.20;1.00;;;;;;6280716;28;20276;-55
2023/01/14 16:17:51;;;;;;;12.77;5.33;;;7.20;1.00;;;;;;6281684;28;20747;-55
2023/01/14 16:20:56;;;;;;;13.20;6.23;;;7.20;1.00;;;;;;6285008;28;20702;-55
2023/01/14 16:24:02;;;;;;;10.70;5.73;;;7.10;1.00;;;;;;6294702;28;20233;-56
2023/01/14 16:27:11;;;;;;;11.93;6.63;;;7.10;1.00;;;;;;6281410;28;20230;-57
2023/01/14 16:30:17;;;;;;;11.13;5.97;;;7.20;1.00;;;;;;6280320;28;20246;-58
2023/01/14 16:33:36;;;;;;;8.80;5.93;;;6.90;1.00;;;;;;6276195;28;20820;-57
2023/01/14 16:36:39;;;;;;;11.07;6.00;;;7.00;1.00;;;;;;6293472;28;20277;-56
2023/01/14 16:39:44;;;;;;;7.90;5.20;;;7.00;1.00;;;;;;6291339;28;20263;-55
2023/01/14 16:42:48;;;;;;;12.03;6.80;;;7.00;1.00;;;;;;6285064;28;20230;-56
2023/01/14 16:45:53;;;;;;;11.90;6.60;;;7.00;1.00;;;;;;6276296;28;20256;-55
2023/01/14 16:48:56;;;;;;;10.40;6.03;;;7.10;1.00;;;;;;6274780;28;20249;-56
2023/01/14 16:51:59;;;;;;;11.83;5.37;;;7.30;1.00;;;;;;6282775;28;20702;-57
2023/01/14 16:55:04;;;;;;;14.80;8.97;;;7.20;1.00;;;;;;6276905;28;20305;-56
2023/01/14 16:58:07;;;;;;;9.20;5.57;;;7.00;1.00;;;;;;6290462;28;20229;-56
2023/01/14 17:01:11;;;;;;;6.87;4.93;;;7.00;1.00;;;;;;6288230;28;20320;-55
2023/01/14 17:04:14;;;;;;;15.03;6.90;;;7.10;1.00;;;;;;6284169;28;20244;-56
2023/01/14 17:07:17;;;;;;;11.23;6.00;;;6.90;1.00;;;;;;6286100;28;20257;-57
2023/01/14 17:10:23;;;;;;;10.27;6.87;;;7.00;1.00;;;;;;6285028;28;20240;-55
2023/01/14 17:13:26;;;;;;;9.03;5.80;;;7.10;1.00;;;;;;6285605;28;20229;-61
2023/01/14 17:16:29;;;;;;;13.90;8.07;;;7.10;1.00;;;;;;6292500;28;20366;-56